Dades meteorològiques de l'aviació METAR     EFOU Oulu Airport
Temperatura
21°C Temperatura
0°C Rosada
25% Humitat



Vent
8 M/S
17 MPH
27 KM/H
15 NUS



130°
SE
Condicions actuals

Sense núvols Sense núvols
Pressió 1006.92 (hPa) - 29.73 (inHg)
Visibilitat 6.2 (milla) - 10 (km)
Aeroport
Codi aeroport EFOU

Ubicació: Oulu Airport
Distància: 83 (km)

Metar:
EFOU 251650Z AUTO 13015KT CAVOK 21/M00 Q1007

Temps: 25-05-2022 19:50 EEST